TAF and METAR

METAR for El Alto International Airport

SLLP 251300Z 30005KT 9999 FEW017 SCT200 09/02 Q1038
Report created 25. sep 15:00
wind 5 knots from WNW (300°) visibility > 10km some clouds (~25% cover) at 1700 feet scattered clouds (~50% cover) at 20000 feet Temperature 9° with dewpoint at 2° (Humidity 61.51%) Pressure 1038 hPa

TAF for El Alto International Airport

TAF SLLP 251050Z 2512/2612 34005KT 9999 FEW015 TX15/2520Z TN00/2610Z TEMPO 2518/2522 06012KT 5000 VCTSSH FEW020CB BECMG 2523/2601 10005KT TEMPO 2605/2609 3000E VCFG
Report created 25. sep 12:50

between 25. sep 14:00 - 26. sep 14:00

wind 5 knots from NNW (340°) visibility > 10km some clouds (~25% cover) at 1500 feet Max temperature 15° expected today at around 22 o'clock Min temperature 00° expected tomorrow at around 12 o'clock

temporarily between 25. sep 20:00 - 26. sep 00:00

wind 12 knots from ENE (060°) visibility 5000 meters thunderstorm and in the vicinity